createdAt,value
2023-03-10T00:00:18.645Z,1.50
2023-03-10T00:03:05.950Z,1.60
2023-03-10T00:05:52.997Z,1.60
2023-03-10T00:08:40.651Z,1.40
2023-03-10T00:11:28.243Z,2.00
2023-03-10T00:14:15.235Z,1.70
2023-03-10T00:17:02.532Z,1.53
2023-03-10T00:19:49.475Z,1.30
2023-03-10T00:22:36.402Z,1.60
2023-03-10T00:25:23.348Z,1.60
2023-03-10T00:28:10.314Z,1.70
2023-03-10T00:31:05.677Z,1.67
2023-03-10T00:33:52.780Z,1.40
2023-03-10T00:36:40.522Z,1.60
2023-03-10T00:39:29.455Z,1.40
2023-03-10T00:42:16.357Z,1.83
2023-03-10T00:45:03.577Z,1.50
2023-03-10T00:47:50.474Z,1.60
2023-03-10T00:50:38.341Z,1.60
2023-03-10T00:53:26.161Z,1.30
2023-03-10T00:56:16.101Z,1.40
2023-03-10T00:59:03.358Z,1.30
2023-03-10T01:01:50.359Z,1.50
2023-03-10T01:04:37.395Z,1.70
2023-03-10T01:07:24.339Z,1.50
2023-03-10T01:10:12.446Z,1.20
2023-03-10T01:12:59.399Z,1.10
2023-03-10T01:15:50.814Z,1.30
2023-03-10T01:18:39.413Z,1.07
2023-03-10T01:21:29.362Z,1.50
2023-03-10T01:24:16.739Z,1.50
2023-03-10T01:27:03.718Z,1.37
2023-03-10T01:29:50.672Z,1.50
2023-03-10T01:32:38.372Z,1.37
2023-03-10T01:35:25.597Z,1.20
2023-03-10T01:38:12.776Z,1.23
2023-03-10T01:40:59.748Z,1.20
2023-03-10T01:43:49.979Z,1.50
2023-03-10T01:46:40.155Z,1.47
2023-03-10T01:49:43.053Z,1.53
2023-03-10T01:52:33.516Z,1.27
2023-03-10T01:55:31.473Z,1.50
2023-03-10T01:58:22.211Z,1.40
2023-03-10T02:01:11.370Z,1.10
2023-03-10T02:04:08.215Z,1.20
2023-03-10T02:06:57.302Z,1.63
2023-03-10T02:09:47.885Z,1.30
2023-03-10T02:12:34.921Z,1.57
2023-03-10T02:15:21.918Z,1.37
2023-03-10T02:18:12.700Z,1.10
2023-03-10T02:21:12.735Z,1.50
2023-03-10T02:24:12.459Z,1.30
2023-03-10T02:27:04.656Z,1.23
2023-03-10T02:30:04.400Z,1.53
2023-03-10T02:33:02.024Z,1.50
2023-03-10T02:35:49.493Z,1.40
2023-03-10T02:38:41.057Z,1.37
2023-03-10T02:41:35.003Z,1.40
2023-03-10T02:44:24.565Z,1.80
2023-03-10T02:47:12.052Z,1.50
2023-03-10T02:49:59.007Z,1.30
2023-03-10T02:52:59.550Z,1.30
2023-03-10T02:55:47.061Z,1.43
2023-03-10T02:58:35.287Z,1.20
2023-03-10T03:01:26.369Z,1.60
2023-03-10T03:04:15.220Z,1.17
2023-03-10T03:07:03.158Z,1.50
2023-03-10T03:09:51.521Z,1.50
2023-03-10T03:12:38.784Z,1.40
2023-03-10T03:15:25.931Z,1.43
2023-03-10T03:18:13.422Z,1.40
2023-03-10T03:21:11.839Z,1.47
2023-03-10T03:23:59.608Z,1.30
2023-03-10T03:26:46.917Z,1.57
2023-03-10T03:29:38.128Z,1.60
2023-03-10T03:32:26.437Z,1.50
2023-03-10T03:35:17.763Z,1.40
2023-03-10T03:38:05.940Z,1.47
2023-03-10T03:40:53.019Z,1.57
2023-03-10T03:43:41.984Z,1.50
2023-03-10T03:46:29.293Z,1.97
2023-03-10T03:49:17.425Z,1.63
2023-03-10T03:52:07.353Z,1.50
2023-03-10T03:54:54.484Z,1.20
2023-03-10T03:57:42.861Z,1.43
2023-03-10T04:00:29.910Z,1.30
2023-03-10T04:03:23.212Z,1.60
2023-03-10T04:06:10.494Z,1.70
2023-03-10T04:08:58.075Z,1.50
2023-03-10T04:11:47.320Z,1.70
2023-03-10T04:14:34.452Z,1.90
2023-03-10T04:17:21.453Z,1.73
2023-03-10T04:20:11.500Z,5.70
2023-03-10T04:23:02.081Z,5.07
2023-03-10T04:25:52.002Z,3.20
2023-03-10T04:28:39.409Z,2.53
2023-03-10T04:31:28.342Z,2.30
2023-03-10T04:34:16.365Z,2.97
2023-03-10T04:37:03.901Z,2.20
2023-03-10T04:39:51.577Z,1.70
2023-03-10T04:42:38.570Z,1.40
2023-03-10T04:45:25.838Z,1.07
2023-03-10T04:48:14.103Z,1.33
2023-03-10T04:51:04.183Z,1.23
2023-03-10T04:53:57.029Z,1.20
2023-03-10T04:56:48.705Z,1.47
2023-03-10T04:59:35.858Z,1.10
2023-03-10T05:02:22.974Z,1.40
2023-03-10T05:05:11.396Z,1.30
2023-03-10T05:08:01.791Z,1.17
2023-03-10T05:10:49.088Z,1.17
2023-03-10T05:13:36.861Z,1.30
2023-03-10T05:16:25.292Z,1.30
2023-03-10T05:19:13.662Z,1.23
2023-03-10T05:22:01.487Z,1.40
2023-03-10T05:24:49.911Z,1.07
2023-03-10T05:27:39.001Z,1.63
2023-03-10T05:30:26.643Z,1.20
2023-03-10T05:33:16.190Z,1.30
2023-03-10T05:36:05.545Z,1.40
2023-03-10T05:38:53.310Z,1.07
2023-03-10T05:41:40.479Z,1.13
2023-03-10T05:44:27.682Z,1.20
2023-03-10T05:47:18.992Z,1.63
2023-03-10T05:50:09.184Z,1.30
2023-03-10T05:52:56.369Z,1.00
2023-03-10T05:55:43.925Z,1.00
2023-03-10T05:58:30.948Z,1.10
2023-03-10T06:01:18.887Z,1.10
2023-03-10T06:04:06.327Z,0.83
2023-03-10T06:06:53.272Z,0.93
2023-03-10T06:09:40.237Z,0.93
2023-03-10T06:12:27.209Z,0.93
2023-03-10T06:15:14.194Z,1.00
2023-03-10T06:18:01.450Z,0.97
2023-03-10T06:20:49.414Z,0.90
2023-03-10T06:23:37.404Z,0.90
2023-03-10T06:26:24.468Z,0.90
2023-03-10T06:29:11.457Z,0.90
2023-03-10T06:31:58.635Z,0.80
2023-03-10T06:34:45.583Z,0.80
2023-03-10T06:37:32.526Z,0.80
2023-03-10T06:40:19.643Z,0.50
2023-03-10T06:43:06.575Z,0.73
2023-03-10T06:45:53.601Z,0.70
2023-03-10T06:48:42.464Z,0.50
2023-03-10T06:51:29.379Z,0.80
2023-03-10T06:54:16.368Z,0.60
2023-03-10T06:57:05.100Z,0.60
2023-03-10T06:59:52.267Z,0.67
2023-03-10T07:02:39.172Z,0.70
2023-03-10T07:05:27.395Z,0.60
2023-03-10T07:08:14.355Z,0.60
2023-03-10T07:11:01.262Z,0.50
2023-03-10T07:13:48.181Z,0.50
2023-03-10T07:16:35.144Z,0.60
2023-03-10T07:19:22.263Z,0.50
2023-03-10T07:22:11.278Z,0.50
2023-03-10T07:24:58.364Z,0.50
2023-03-10T07:27:45.309Z,0.50
2023-03-10T07:30:33.912Z,0.63
2023-03-10T07:33:20.856Z,0.50
2023-03-10T07:36:10.956Z,0.60
2023-03-10T07:38:58.022Z,0.40
2023-03-10T07:41:44.944Z,0.70
2023-03-10T07:44:31.845Z,0.80
2023-03-10T07:47:18.805Z,0.60
2023-03-10T07:50:06.208Z,0.80
2023-03-10T07:52:54.894Z,0.60
2023-03-10T07:55:41.814Z,0.63
2023-03-10T07:58:28.726Z,0.77
2023-03-10T08:01:18.755Z,0.77
2023-03-10T08:04:06.313Z,0.77
2023-03-10T08:06:53.412Z,0.70
2023-03-10T08:09:41.447Z,0.90
2023-03-10T08:12:28.461Z,0.67
2023-03-10T08:15:15.554Z,0.57
2023-03-10T08:18:05.169Z,0.70
2023-03-10T08:20:52.117Z,0.60
2023-03-10T08:23:39.457Z,0.60
2023-03-10T08:26:26.447Z,0.70
2023-03-10T08:29:13.401Z,0.60
2023-03-10T08:32:00.365Z,0.57
2023-03-10T08:34:47.318Z,0.80
2023-03-10T08:37:34.315Z,0.87
2023-03-10T08:40:21.435Z,0.70
2023-03-10T08:43:08.364Z,0.73
2023-03-10T08:45:55.287Z,0.73
2023-03-10T08:48:43.020Z,0.80
2023-03-10T08:51:30.174Z,0.60
2023-03-10T08:54:19.889Z,0.83
2023-03-10T08:57:06.972Z,0.80
2023-03-10T08:59:53.905Z,0.90
2023-03-10T09:02:40.902Z,0.80
2023-03-10T09:05:28.170Z,0.60
2023-03-10T09:08:15.183Z,0.70
2023-03-10T09:11:02.947Z,0.70
2023-03-10T09:13:50.044Z,0.83
2023-03-10T09:16:39.389Z,0.80
2023-03-10T09:19:26.361Z,0.70
2023-03-10T09:22:13.328Z,0.70
2023-03-10T09:25:00.841Z,0.87
2023-03-10T09:27:48.165Z,0.60
2023-03-10T09:30:37.324Z,0.60
2023-03-10T09:33:24.962Z,0.57
2023-03-10T09:36:12.048Z,0.60
2023-03-10T09:39:00.048Z,0.60
2023-03-10T09:42:14.817Z,0.70
2023-03-10T09:45:17.461Z,0.60
2023-03-10T09:48:35.729Z,0.67
2023-03-10T09:51:25.266Z,0.60
2023-03-10T09:54:35.010Z,0.53
2023-03-10T09:57:23.588Z,0.60
2023-03-10T10:00:18.128Z,0.70
2023-03-10T10:03:18.377Z,0.60
2023-03-10T10:06:06.883Z,0.53
2023-03-10T10:09:04.639Z,0.60
2023-03-10T10:11:51.971Z,0.70
2023-03-10T10:14:42.643Z,0.60
2023-03-10T10:18:17.444Z,0.60
2023-03-10T10:21:13.082Z,0.60
2023-03-10T10:24:00.996Z,0.50
2023-03-10T10:26:47.934Z,0.50
2023-03-10T10:29:37.497Z,0.50
2023-03-10T10:32:25.201Z,0.70
2023-03-10T10:35:15.098Z,0.50
2023-03-10T10:38:06.682Z,0.80
2023-03-10T10:41:06.582Z,0.50
2023-03-10T10:44:15.021Z,0.50
2023-03-10T10:47:01.976Z,0.30
2023-03-10T10:49:48.885Z,0.10
2023-03-10T10:52:35.852Z,0.17
2023-03-10T10:55:34.359Z,0.23
2023-03-10T10:58:41.683Z,0.20
2023-03-10T11:01:47.167Z,0.30
2023-03-10T11:04:52.295Z,0.23
2023-03-10T11:07:39.352Z,0.20
2023-03-10T11:10:32.762Z,0.40
2023-03-10T11:13:25.221Z,0.20
2023-03-10T11:16:31.868Z,0.13
2023-03-10T11:19:37.191Z,0.30
2023-03-10T11:22:44.263Z,0.20
2023-03-10T11:26:04.104Z,0.30
2023-03-10T11:29:07.375Z,0.20
2023-03-10T11:32:24.451Z,0.10
2023-03-10T11:35:26.558Z,0.17
2023-03-10T11:38:39.199Z,0.10
2023-03-10T11:41:33.163Z,0.20
2023-03-10T11:44:43.042Z,0.30
2023-03-10T11:47:48.921Z,0.30
2023-03-10T11:50:58.304Z,0.30
2023-03-10T11:53:50.384Z,0.20
2023-03-10T11:56:37.811Z,0.20
2023-03-10T11:59:28.285Z,0.30
2023-03-10T12:02:45.612Z,0.20
2023-03-10T12:05:43.536Z,0.40
2023-03-10T12:08:34.473Z,0.30
2023-03-10T12:11:26.977Z,0.40
2023-03-10T12:14:14.525Z,0.30
2023-03-10T12:17:02.682Z,0.30
2023-03-10T12:20:15.288Z,0.40
2023-03-10T12:23:11.253Z,0.50
2023-03-10T12:25:58.287Z,0.63
2023-03-10T12:28:45.364Z,0.20
2023-03-10T12:31:38.366Z,0.50
2023-03-10T12:34:31.630Z,0.33
2023-03-10T12:37:23.266Z,0.40
2023-03-10T12:40:48.121Z,0.40
2023-03-10T12:43:53.638Z,0.67
2023-03-10T12:46:54.699Z,0.40
2023-03-10T12:49:41.626Z,0.30
2023-03-10T12:52:40.823Z,0.43
2023-03-10T12:55:27.937Z,0.50
2023-03-10T12:58:18.167Z,0.50
2023-03-10T13:01:09.937Z,0.30
2023-03-10T13:03:57.216Z,0.30
2023-03-10T13:06:46.427Z,0.33
2023-03-10T13:09:42.228Z,0.30
2023-03-10T13:12:48.052Z,0.50
2023-03-10T13:15:35.985Z,0.30
2023-03-10T13:18:23.451Z,0.40
2023-03-10T13:21:32.292Z,0.40
2023-03-10T13:24:29.257Z,0.30
2023-03-10T13:27:24.036Z,0.40
2023-03-10T13:30:22.352Z,0.40
2023-03-10T13:33:25.307Z,0.30
2023-03-10T13:36:36.169Z,0.30
2023-03-10T13:39:27.418Z,0.30
2023-03-10T13:42:40.804Z,0.33
2023-03-10T13:45:34.182Z,0.27
2023-03-10T13:48:23.815Z,0.30
2023-03-10T13:51:21.287Z,0.10
2023-03-10T13:54:17.291Z,0.10
2023-03-10T13:57:17.884Z,0.30
2023-03-10T14:00:08.967Z,0.20
2023-03-10T14:02:59.485Z,0.27
2023-03-10T14:05:48.289Z,0.20
2023-03-10T14:08:35.203Z,0.30
2023-03-10T14:11:32.322Z,0.20
2023-03-10T14:14:28.274Z,0.27
2023-03-10T14:17:46.533Z,0.23
2023-03-10T14:20:36.438Z,0.10
2023-03-10T14:23:26.487Z,0.20
2023-03-10T14:26:16.798Z,0.20
2023-03-10T14:29:12.437Z,0.37
2023-03-10T14:31:59.347Z,0.23
2023-03-10T14:34:47.637Z,0.37
2023-03-10T14:37:34.556Z,0.20
2023-03-10T14:40:23.854Z,0.30
2023-03-10T14:43:22.055Z,0.40
2023-03-10T14:46:11.886Z,0.20
2023-03-10T14:48:59.455Z,0.40
2023-03-10T14:51:46.434Z,0.20
2023-03-10T14:54:33.341Z,0.30
2023-03-10T14:57:21.997Z,0.47
2023-03-10T15:00:15.462Z,0.40
2023-03-10T15:03:03.479Z,0.43
2023-03-10T15:05:51.406Z,0.50
2023-03-10T15:08:38.406Z,0.50
2023-03-10T15:11:37.083Z,0.70
2023-03-10T15:14:24.628Z,1.40
2023-03-10T15:17:12.608Z,0.80
2023-03-10T15:19:59.539Z,1.83
2023-03-10T15:22:47.374Z,0.63
2023-03-10T15:25:34.481Z,2.50
2023-03-10T15:28:21.814Z,1.83
2023-03-10T15:31:08.922Z,2.00
2023-03-10T15:33:55.865Z,0.90
2023-03-10T15:36:43.221Z,0.43
2023-03-10T15:39:32.239Z,0.30
2023-03-10T15:42:20.415Z,0.50
2023-03-10T15:45:08.474Z,0.93
2023-03-10T15:47:57.340Z,0.50
2023-03-10T15:50:46.989Z,0.30
2023-03-10T15:53:34.021Z,0.50
2023-03-10T15:56:21.065Z,0.30
2023-03-10T15:59:08.306Z,0.40
2023-03-10T16:01:55.365Z,0.30
2023-03-10T16:04:44.347Z,0.80
2023-03-10T16:07:33.242Z,0.70
2023-03-10T16:10:20.788Z,0.50
2023-03-10T16:13:07.835Z,0.53
2023-03-10T16:15:54.928Z,0.43
2023-03-10T16:18:41.895Z,0.30
2023-03-10T16:21:28.951Z,0.20
2023-03-10T16:24:15.889Z,0.20
2023-03-10T16:27:02.991Z,0.30
2023-03-10T16:29:50.526Z,0.13
2023-03-10T16:32:37.709Z,0.30
2023-03-10T16:35:24.659Z,0.20
2023-03-10T16:38:11.718Z,0.23
2023-03-10T16:40:58.993Z,0.30
2023-03-10T16:43:47.033Z,0.27
2023-03-10T16:46:35.101Z,0.20
2023-03-10T16:49:22.365Z,0.30
2023-03-10T16:52:10.678Z,0.40
2023-03-10T16:54:58.534Z,0.10
2023-03-10T16:57:45.846Z,0.20
2023-03-10T17:00:32.781Z,0.30
2023-03-10T17:03:19.725Z,0.20
2023-03-10T17:06:12.015Z,0.20
2023-03-10T17:09:00.300Z,0.13
2023-03-10T17:11:54.935Z,0.10
2023-03-10T17:14:43.906Z,0.23
2023-03-10T17:17:32.451Z,0.20
2023-03-10T17:20:19.731Z,0.17
2023-03-10T17:23:06.661Z,0.30
2023-03-10T17:25:53.849Z,0.20
2023-03-10T17:28:43.655Z,0.30
2023-03-10T17:31:31.290Z,0.30
2023-03-10T17:34:19.259Z,0.23
2023-03-10T17:37:06.199Z,0.30
2023-03-10T17:39:54.506Z,0.50
2023-03-10T17:42:44.898Z,0.27
2023-03-10T17:45:31.844Z,0.20
2023-03-10T17:48:18.784Z,0.20
2023-03-10T17:51:06.429Z,0.27
2023-03-10T17:53:53.517Z,0.10
2023-03-10T17:56:40.800Z,0.30
2023-03-10T17:59:28.713Z,0.13
2023-03-10T18:02:15.737Z,0.30
2023-03-10T18:05:04.055Z,0.30
2023-03-10T18:07:53.595Z,0.30
2023-03-10T18:10:40.971Z,0.40
2023-03-10T18:13:28.038Z,0.30
2023-03-10T18:16:24.515Z,0.40
2023-03-10T18:19:11.798Z,0.70
2023-03-10T18:21:59.788Z,0.57
2023-03-10T18:24:46.786Z,0.40
2023-03-10T18:27:34.286Z,0.40
2023-03-10T18:30:21.372Z,0.40
2023-03-10T18:33:08.654Z,0.73
2023-03-10T18:35:56.171Z,0.70
2023-03-10T18:38:44.881Z,0.50
2023-03-10T18:41:32.781Z,0.50
2023-03-10T18:44:19.802Z,0.40
2023-03-10T18:47:06.696Z,0.60
2023-03-10T18:49:53.630Z,0.40
2023-03-10T18:52:41.703Z,0.50
2023-03-10T18:55:28.604Z,0.57
2023-03-10T18:58:15.679Z,0.53
2023-03-10T19:01:02.651Z,0.60
2023-03-10T19:03:49.596Z,0.73
2023-03-10T19:06:36.543Z,0.60
2023-03-10T19:09:24.364Z,0.70
2023-03-10T19:12:11.286Z,0.40
2023-03-10T19:15:06.680Z,0.80
2023-03-10T19:17:53.672Z,0.60
2023-03-10T19:20:40.654Z,0.70
2023-03-10T19:23:28.338Z,0.60
2023-03-10T19:26:15.428Z,0.67
2023-03-10T19:29:02.557Z,0.63
2023-03-10T19:31:49.480Z,0.90
2023-03-10T19:34:36.441Z,0.60
2023-03-10T19:37:23.468Z,0.93
2023-03-10T19:40:16.465Z,0.73
2023-03-10T19:43:03.400Z,0.80
2023-03-10T19:45:50.348Z,0.90
2023-03-10T19:48:38.440Z,0.60
2023-03-10T19:51:27.782Z,0.60
2023-03-10T19:54:14.741Z,0.87
2023-03-10T19:57:01.661Z,0.70
2023-03-10T19:59:48.769Z,0.70
2023-03-10T20:02:35.859Z,0.60
2023-03-10T20:05:25.373Z,0.67
2023-03-10T20:08:12.509Z,0.77
2023-03-10T20:11:02.136Z,0.70
2023-03-10T20:13:53.081Z,0.70
2023-03-10T20:16:40.059Z,0.90
2023-03-10T20:19:27.046Z,0.90
2023-03-10T20:22:18.403Z,0.80
2023-03-10T20:25:07.019Z,0.97
2023-03-10T20:27:55.001Z,0.80
2023-03-10T20:30:41.940Z,0.80
2023-03-10T20:33:29.112Z,0.90
2023-03-10T20:36:16.202Z,0.80
2023-03-10T20:39:03.356Z,0.90
2023-03-10T20:41:50.819Z,0.83
2023-03-10T20:44:39.902Z,0.90
2023-03-10T20:47:26.858Z,1.10
2023-03-10T20:50:15.176Z,0.93
2023-03-10T20:53:02.349Z,0.90
2023-03-10T20:55:49.258Z,0.90
2023-03-10T20:58:36.489Z,1.10
2023-03-10T21:01:23.551Z,0.90
2023-03-10T21:04:10.631Z,0.80
2023-03-10T21:06:57.683Z,1.10
2023-03-10T21:09:45.206Z,1.10
2023-03-10T21:12:32.286Z,1.00
2023-03-10T21:15:19.562Z,0.87
2023-03-10T21:18:07.073Z,1.97
2023-03-10T21:20:54.114Z,6.87
2023-03-10T21:23:41.506Z,3.80
2023-03-10T21:26:28.550Z,6.37
2023-03-10T21:29:15.771Z,5.30
2023-03-10T21:32:03.420Z,4.63
2023-03-10T21:34:50.350Z,1.90
2023-03-10T21:37:38.716Z,1.03
2023-03-10T21:40:27.644Z,0.80
2023-03-10T21:43:14.566Z,1.00
2023-03-10T21:46:01.598Z,1.00
2023-03-10T21:48:48.604Z,0.67
2023-03-10T21:51:36.056Z,0.77
2023-03-10T21:54:23.205Z,0.80
2023-03-10T21:57:10.198Z,0.83
2023-03-10T21:59:57.130Z,0.70
2023-03-10T22:02:44.053Z,1.00
2023-03-10T22:05:30.965Z,0.73
2023-03-10T22:08:17.904Z,0.87
2023-03-10T22:11:06.871Z,1.00
2023-03-10T22:13:54.426Z,0.70
2023-03-10T22:16:42.014Z,0.73
2023-03-10T22:19:28.917Z,0.93
2023-03-10T22:22:15.864Z,0.90
2023-03-10T22:25:02.840Z,0.90
2023-03-10T22:27:52.836Z,1.10
2023-03-10T22:30:40.300Z,1.00
2023-03-10T22:33:27.300Z,0.70
2023-03-10T22:36:14.542Z,1.10
2023-03-10T22:39:01.523Z,0.97
2023-03-10T22:41:48.523Z,0.87
2023-03-10T22:44:36.577Z,0.97
2023-03-10T22:47:23.543Z,1.30
2023-03-10T22:50:21.750Z,1.60
2023-03-10T22:53:14.917Z,1.20
2023-03-10T22:56:01.877Z,1.20
2023-03-10T22:58:48.803Z,1.10
2023-03-10T23:01:35.742Z,1.07
2023-03-10T23:04:22.767Z,1.10
2023-03-10T23:07:10.398Z,1.10
2023-03-10T23:09:57.338Z,1.93
2023-03-10T23:12:44.882Z,1.50
2023-03-10T23:15:34.112Z,1.30
2023-03-10T23:18:21.338Z,1.10
2023-03-10T23:21:08.372Z,0.90
2023-03-10T23:23:55.389Z,0.90
2023-03-10T23:26:42.322Z,1.20
2023-03-10T23:29:29.246Z,0.90
2023-03-10T23:32:16.320Z,1.00
2023-03-10T23:35:05.806Z,0.90
2023-03-10T23:37:53.030Z,1.07
2023-03-10T23:40:39.987Z,1.00
2023-03-10T23:43:27.261Z,1.03
2023-03-10T23:46:14.229Z,1.00
2023-03-10T23:49:01.210Z,1.17
2023-03-10T23:51:51.255Z,1.20
2023-03-10T23:54:38.236Z,1.00
2023-03-10T23:57:25.650Z,1.13
